sensor_id;sensor_type;location;lat;lon;timestamp;pressure;altitude;pressure_sealevel;temperature;humidity
53300;BME280;39187;48.476;8.310;2023-03-17T00:00:11;90920.72;;;5.18;56.09
53300;BME280;39187;48.476;8.310;2023-03-17T00:02:39;90916.22;;;5.18;55.98
53300;BME280;39187;48.476;8.310;2023-03-17T00:05:33;90917.00;;;5.12;56.30
53300;BME280;39187;48.476;8.310;2023-03-17T00:08:12;90916.63;;;5.10;56.48
53300;BME280;39187;48.476;8.310;2023-03-17T00:10:39;90909.47;;;5.07;56.69
53300;BME280;39187;48.476;8.310;2023-03-17T00:13:05;90919.22;;;5.17;56.34
53300;BME280;39187;48.476;8.310;2023-03-17T00:15:31;90910.16;;;5.21;55.97
53300;BME280;39187;48.476;8.310;2023-03-17T00:17:57;90915.06;;;5.19;55.93
53300;BME280;39187;48.476;8.310;2023-03-17T00:20:26;90920.28;;;5.27;55.98
53300;BME280;39187;48.476;8.310;2023-03-17T00:22:59;90926.28;;;5.34;55.71
53300;BME280;39187;48.476;8.310;2023-03-17T00:25:30;90921.69;;;5.42;55.65
53300;BME280;39187;48.476;8.310;2023-03-17T00:27:58;90919.81;;;5.39;55.68
53300;BME280;39187;48.476;8.310;2023-03-17T00:30:24;90916.00;;;5.47;55.73
53300;BME280;39187;48.476;8.310;2023-03-17T00:32:54;90914.84;;;5.51;55.18
53300;BME280;39187;48.476;8.310;2023-03-17T00:35:25;90908.38;;;5.59;54.55
53300;BME280;39187;48.476;8.310;2023-03-17T00:37:54;90904.59;;;5.60;54.90
53300;BME280;39187;48.476;8.310;2023-03-17T00:40:22;90893.59;;;5.65;54.46
53300;BME280;39187;48.476;8.310;2023-03-17T00:42:50;90892.84;;;5.69;54.38
53300;BME280;39187;48.476;8.310;2023-03-17T00:45:17;90898.50;;;5.67;54.64
53300;BME280;39187;48.476;8.310;2023-03-17T00:47:44;90895.44;;;5.76;53.74
53300;BME280;39187;48.476;8.310;2023-03-17T00:50:15;90884.44;;;5.81;53.47
53300;BME280;39187;48.476;8.310;2023-03-17T00:52:42;90886.00;;;5.75;53.36
53300;BME280;39187;48.476;8.310;2023-03-17T00:55:08;90881.75;;;5.84;53.29
53300;BME280;39187;48.476;8.310;2023-03-17T00:57:38;90890.03;;;5.86;53.13
53300;BME280;39187;48.476;8.310;2023-03-17T01:00:06;90890.44;;;5.88;52.58
53300;BME280;39187;48.476;8.310;2023-03-17T01:02:36;90883.66;;;5.87;52.46
53300;BME280;39187;48.476;8.310;2023-03-17T01:05:01;90888.00;;;6.04;51.83
53300;BME280;39187;48.476;8.310;2023-03-17T01:07:28;90885.25;;;6.15;51.27
53300;BME280;39187;48.476;8.310;2023-03-17T01:09:54;90891.59;;;6.21;51.37
53300;BME280;39187;48.476;8.310;2023-03-17T01:12:20;90880.31;;;6.21;51.05
53300;BME280;39187;48.476;8.310;2023-03-17T01:14:45;90889.63;;;6.32;50.46
53300;BME280;39187;48.476;8.310;2023-03-17T01:17:15;90877.47;;;6.38;49.70
53300;BME280;39187;48.476;8.310;2023-03-17T01:19:43;90878.91;;;6.43;50.07
53300;BME280;39187;48.476;8.310;2023-03-17T01:22:09;90874.00;;;6.45;49.77
53300;BME280;39187;48.476;8.310;2023-03-17T01:24:34;90869.41;;;6.49;49.41
53300;BME280;39187;48.476;8.310;2023-03-17T01:27:00;90861.13;;;6.47;48.77
53300;BME280;39187;48.476;8.310;2023-03-17T01:29:27;90860.34;;;6.50;49.00
53300;BME280;39187;48.476;8.310;2023-03-17T01:31:52;90858.22;;;6.68;47.78
53300;BME280;39187;48.476;8.310;2023-03-17T01:34:18;90857.38;;;6.75;48.08
53300;BME280;39187;48.476;8.310;2023-03-17T01:36:44;90856.94;;;6.80;47.99
53300;BME280;39187;48.476;8.310;2023-03-17T01:39:10;90856.16;;;6.83;47.37
53300;BME280;39187;48.476;8.310;2023-03-17T01:41:37;90848.22;;;6.83;47.39
53300;BME280;39187;48.476;8.310;2023-03-17T01:44:04;90836.03;;;6.89;46.59
53300;BME280;39187;48.476;8.310;2023-03-17T01:46:34;90836.34;;;6.95;46.29
53300;BME280;39187;48.476;8.310;2023-03-17T01:51:51;90833.34;;;6.93;46.63
53300;BME280;39187;48.476;8.310;2023-03-17T01:54:49;90839.25;;;7.04;45.64
53300;BME280;39187;48.476;8.310;2023-03-17T01:57:24;90835.03;;;7.06;45.30
53300;BME280;39187;48.476;8.310;2023-03-17T01:59:55;90839.88;;;7.11;45.27
53300;BME280;39187;48.476;8.310;2023-03-17T02:02:27;90840.97;;;7.14;44.78
53300;BME280;39187;48.476;8.310;2023-03-17T02:04:55;90834.16;;;7.16;44.34
53300;BME280;39187;48.476;8.310;2023-03-17T02:07:22;90831.50;;;7.16;44.90
53300;BME280;39187;48.476;8.310;2023-03-17T02:09:49;90824.06;;;7.08;43.43
53300;BME280;39187;48.476;8.310;2023-03-17T02:12:16;90826.81;;;7.24;44.16
53300;BME280;39187;48.476;8.310;2023-03-17T02:14:42;90832.38;;;7.33;43.62
53300;BME280;39187;48.476;8.310;2023-03-17T02:17:08;90829.25;;;7.38;44.15
53300;BME280;39187;48.476;8.310;2023-03-17T02:19:34;90829.22;;;7.42;44.13
53300;BME280;39187;48.476;8.310;2023-03-17T02:21:59;90822.81;;;7.39;43.67
53300;BME280;39187;48.476;8.310;2023-03-17T02:24:38;90829.09;;;7.25;43.71
53300;BME280;39187;48.476;8.310;2023-03-17T02:27:11;90826.97;;;7.40;44.10
53300;BME280;39187;48.476;8.310;2023-03-17T02:29:37;90825.81;;;7.41;43.76
53300;BME280;39187;48.476;8.310;2023-03-17T02:32:03;90820.81;;;7.47;43.59
53300;BME280;39187;48.476;8.310;2023-03-17T02:34:30;90827.94;;;7.50;43.47
53300;BME280;39187;48.476;8.310;2023-03-17T02:36:56;90821.09;;;7.52;43.16
53300;BME280;39187;48.476;8.310;2023-03-17T02:39:23;90821.47;;;7.54;42.72
53300;BME280;39187;48.476;8.310;2023-03-17T02:41:48;90829.34;;;7.58;42.22
53300;BME280;39187;48.476;8.310;2023-03-17T02:44:14;90819.88;;;7.57;42.50
53300;BME280;39187;48.476;8.310;2023-03-17T02:46:40;90816.38;;;7.63;42.53
53300;BME280;39187;48.476;8.310;2023-03-17T02:49:06;90814.47;;;7.64;42.30
53300;BME280;39187;48.476;8.310;2023-03-17T02:51:31;90813.72;;;7.63;42.09
53300;BME280;39187;48.476;8.310;2023-03-17T02:53:57;90813.91;;;7.53;42.00
53300;BME280;39187;48.476;8.310;2023-03-17T02:56:23;90808.22;;;7.54;41.82
53300;BME280;39187;48.476;8.310;2023-03-17T02:58:48;90807.69;;;7.63;41.40
53300;BME280;39187;48.476;8.310;2023-03-17T03:01:14;90810.31;;;7.63;41.46
53300;BME280;39187;48.476;8.310;2023-03-17T03:03:40;90813.69;;;7.67;41.31
53300;BME280;39187;48.476;8.310;2023-03-17T03:06:06;90815.63;;;7.63;41.82
53300;BME280;39187;48.476;8.310;2023-03-17T03:08:32;90813.41;;;7.61;41.42
53300;BME280;39187;48.476;8.310;2023-03-17T03:10:57;90816.03;;;7.61;41.54
53300;BME280;39187;48.476;8.310;2023-03-17T03:13:24;90813.91;;;7.53;41.95
53300;BME280;39187;48.476;8.310;2023-03-17T03:15:50;90812.69;;;7.57;41.34
53300;BME280;39187;48.476;8.310;2023-03-17T03:18:16;90813.44;;;7.58;41.12
53300;BME280;39187;48.476;8.310;2023-03-17T03:20:43;90807.41;;;7.57;41.81
53300;BME280;39187;48.476;8.310;2023-03-17T03:23:09;90811.19;;;7.56;41.24
53300;BME280;39187;48.476;8.310;2023-03-17T03:25:35;90807.84;;;7.52;41.31
53300;BME280;39187;48.476;8.310;2023-03-17T03:28:03;90798.50;;;7.48;41.72
53300;BME280;39187;48.476;8.310;2023-03-17T03:30:29;90807.28;;;7.41;41.27
53300;BME280;39187;48.476;8.310;2023-03-17T03:32:54;90806.47;;;7.44;41.03
53300;BME280;39187;48.476;8.310;2023-03-17T03:35:20;90811.31;;;7.49;41.18
53300;BME280;39187;48.476;8.310;2023-03-17T03:37:45;90802.28;;;7.47;41.81
53300;BME280;39187;48.476;8.310;2023-03-17T03:40:11;90799.56;;;7.50;41.04
53300;BME280;39187;48.476;8.310;2023-03-17T03:42:37;90799.56;;;7.50;40.81
53300;BME280;39187;48.476;8.310;2023-03-17T03:45:03;90808.22;;;7.54;41.29
53300;BME280;39187;48.476;8.310;2023-03-17T03:47:29;90804.28;;;7.39;40.88
53300;BME280;39187;48.476;8.310;2023-03-17T03:49:54;90802.16;;;7.54;41.07
53300;BME280;39187;48.476;8.310;2023-03-17T03:52:20;90802.56;;;7.52;40.85
53300;BME280;39187;48.476;8.310;2023-03-17T03:54:46;90804.47;;;7.52;41.03
53300;BME280;39187;48.476;8.310;2023-03-17T03:57:11;90805.28;;;7.49;40.86
53300;BME280;39187;48.476;8.310;2023-03-17T03:59:37;90804.97;;;7.43;40.61
53300;BME280;39187;48.476;8.310;2023-03-17T04:02:03;90796.69;;;7.41;40.65
53300;BME280;39187;48.476;8.310;2023-03-17T04:04:28;90797.78;;;7.44;41.25
53300;BME280;39187;48.476;8.310;2023-03-17T04:06:54;90796.09;;;7.30;41.85
53300;BME280;39187;48.476;8.310;2023-03-17T04:09:19;90795.13;;;7.20;42.04
53300;BME280;39187;48.476;8.310;2023-03-17T04:11:45;90793.66;;;6.93;42.75
53300;BME280;39187;48.476;8.310;2023-03-17T04:14:11;90796.34;;;7.16;42.01
53300;BME280;39187;48.476;8.310;2023-03-17T04:16:36;90793.28;;;7.17;41.83
53300;BME280;39187;48.476;8.310;2023-03-17T04:19:02;90791.16;;;7.32;42.15
53300;BME280;39187;48.476;8.310;2023-03-17T04:21:27;90795.94;;;7.17;41.80
53300;BME280;39187;48.476;8.310;2023-03-17T04:23:53;90803.00;;;7.01;42.13
53300;BME280;39187;48.476;8.310;2023-03-17T04:26:18;90807.25;;;7.18;42.22
53300;BME280;39187;48.476;8.310;2023-03-17T04:28:45;90796.28;;;7.19;42.49
53300;BME280;39187;48.476;8.310;2023-03-17T04:31:11;90794.28;;;7.27;41.96
53300;BME280;39187;48.476;8.310;2023-03-17T04:33:37;90795.53;;;7.19;41.56
53300;BME280;39187;48.476;8.310;2023-03-17T04:36:03;90791.91;;;7.33;41.64
53300;BME280;39187;48.476;8.310;2023-03-17T04:38:28;90796.97;;;7.23;41.70
53300;BME280;39187;48.476;8.310;2023-03-17T04:40:54;90789.66;;;7.31;41.59
53300;BME280;39187;48.476;8.310;2023-03-17T04:43:20;90788.06;;;7.14;41.59
53300;BME280;39187;48.476;8.310;2023-03-17T04:45:45;90784.47;;;7.24;41.64
53300;BME280;39187;48.476;8.310;2023-03-17T04:48:11;90793.47;;;7.30;41.89
53300;BME280;39187;48.476;8.310;2023-03-17T04:50:36;90798.88;;;7.23;41.48
53300;BME280;39187;48.476;8.310;2023-03-17T04:53:02;90791.44;;;7.14;41.29
53300;BME280;39187;48.476;8.310;2023-03-17T04:55:28;90791.50;;;7.11;42.02
53300;BME280;39187;48.476;8.310;2023-03-17T04:57:53;90786.47;;;6.93;42.34
53300;BME280;39187;48.476;8.310;2023-03-17T05:00:19;90781.19;;;6.93;42.75
53300;BME280;39187;48.476;8.310;2023-03-17T05:02:45;90792.16;;;6.92;42.75
53300;BME280;39187;48.476;8.310;2023-03-17T05:05:11;90795.25;;;7.13;42.01
53300;BME280;39187;48.476;8.310;2023-03-17T05:07:37;90784.47;;;7.01;41.52
53300;BME280;39187;48.476;8.310;2023-03-17T05:10:03;90788.81;;;7.14;41.56
53300;BME280;39187;48.476;8.310;2023-03-17T05:12:29;90785.09;;;7.35;41.13
53300;BME280;39187;48.476;8.310;2023-03-17T05:14:55;90787.63;;;7.42;41.58
53300;BME280;39187;48.476;8.310;2023-03-17T05:17:20;90786.13;;;7.41;40.97
53300;BME280;39187;48.476;8.310;2023-03-17T05:19:46;90787.16;;;7.47;41.36
53300;BME280;39187;48.476;8.310;2023-03-17T05:22:12;90788.88;;;7.34;40.51
53300;BME280;39187;48.476;8.310;2023-03-17T05:24:37;90787.44;;;7.53;40.65
53300;BME280;39187;48.476;8.310;2023-03-17T05:27:03;90790.13;;;7.49;40.61
53300;BME280;39187;48.476;8.310;2023-03-17T05:29:28;90788.84;;;7.57;40.81
53300;BME280;39187;48.476;8.310;2023-03-17T05:31:54;90791.97;;;7.52;40.43
53300;BME280;39187;48.476;8.310;2023-03-17T05:34:19;90788.38;;;7.62;40.83
53300;BME280;39187;48.476;8.310;2023-03-17T05:36:45;90794.72;;;7.69;41.11
53300;BME280;39187;48.476;8.310;2023-03-17T05:39:10;90790.25;;;7.65;40.92
53300;BME280;39187;48.476;8.310;2023-03-17T05:41:36;90796.56;;;7.72;41.21
53300;BME280;39187;48.476;8.310;2023-03-17T05:44:01;90791.91;;;7.79;41.00
53300;BME280;39187;48.476;8.310;2023-03-17T05:46:27;90799.97;;;7.72;41.84
53300;BME280;39187;48.476;8.310;2023-03-17T05:48:53;90797.44;;;7.65;42.21
53300;BME280;39187;48.476;8.310;2023-03-17T05:51:19;90799.28;;;7.68;42.12
53300;BME280;39187;48.476;8.310;2023-03-17T05:53:45;90796.09;;;7.77;42.08
53300;BME280;39187;48.476;8.310;2023-03-17T05:56:11;90798.03;;;7.96;40.98
53300;BME280;39187;48.476;8.310;2023-03-17T05:58:36;90798.50;;;8.11;41.43
53300;BME280;39187;48.476;8.310;2023-03-17T06:01:02;90797.41;;;8.08;41.47
53300;BME280;39187;48.476;8.310;2023-03-17T06:03:28;90804.13;;;8.36;40.99
53300;BME280;39187;48.476;8.310;2023-03-17T06:05:53;90799.28;;;8.51;40.40
53300;BME280;39187;48.476;8.310;2023-03-17T06:08:19;90797.53;;;8.44;40.77
53300;BME280;39187;48.476;8.310;2023-03-17T06:10:45;90794.91;;;8.60;40.97
53300;BME280;39187;48.476;8.310;2023-03-17T06:13:11;90794.97;;;8.76;40.42
53300;BME280;39187;48.476;8.310;2023-03-17T06:15:37;90792.25;;;8.96;40.00
53300;BME280;39187;48.476;8.310;2023-03-17T06:18:03;90796.34;;;9.33;39.95
53300;BME280;39187;48.476;8.310;2023-03-17T06:20:30;90798.91;;;9.69;39.62
53300;BME280;39187;48.476;8.310;2023-03-17T06:22:56;90791.09;;;10.07;39.72
53300;BME280;39187;48.476;8.310;2023-03-17T06:25:22;90794.63;;;10.74;40.08
53300;BME280;39187;48.476;8.310;2023-03-17T06:27:47;90791.47;;;11.30;39.02
53300;BME280;39187;48.476;8.310;2023-03-17T06:30:17;90793.53;;;11.86;38.10
53300;BME280;39187;48.476;8.310;2023-03-17T06:32:42;90797.50;;;12.37;36.90
53300;BME280;39187;48.476;8.310;2023-03-17T06:35:08;90810.50;;;12.92;36.07
53300;BME280;39187;48.476;8.310;2023-03-17T06:37:34;90812.28;;;13.56;35.16
53300;BME280;39187;48.476;8.310;2023-03-17T06:40:00;90812.03;;;13.73;34.96
53300;BME280;39187;48.476;8.310;2023-03-17T06:42:25;90803.94;;;14.13;33.63
53300;BME280;39187;48.476;8.310;2023-03-17T06:44:52;90805.66;;;13.30;34.14
53300;BME280;39187;48.476;8.310;2023-03-17T06:47:18;90812.22;;;12.85;34.53
53300;BME280;39187;48.476;8.310;2023-03-17T06:49:44;90812.97;;;12.86;35.04
53300;BME280;39187;48.476;8.310;2023-03-17T06:52:11;90808.31;;;13.30;34.47
53300;BME280;39187;48.476;8.310;2023-03-17T06:54:37;90808.28;;;13.70;34.09
53300;BME280;39187;48.476;8.310;2023-03-17T06:57:03;90808.47;;;13.76;33.85
53300;BME280;39187;48.476;8.310;2023-03-17T06:59:29;90817.88;;;13.98;33.52
53300;BME280;39187;48.476;8.310;2023-03-17T07:01:55;90817.06;;;14.47;32.20
53300;BME280;39187;48.476;8.310;2023-03-17T07:04:20;90816.59;;;14.67;33.38
53300;BME280;39187;48.476;8.310;2023-03-17T07:06:46;90812.34;;;13.75;33.54
53300;BME280;39187;48.476;8.310;2023-03-17T07:09:11;90808.38;;;13.97;33.24
53300;BME280;39187;48.476;8.310;2023-03-17T07:11:37;90817.47;;;14.36;32.84
53300;BME280;39187;48.476;8.310;2023-03-17T07:14:03;90808.53;;;13.94;33.30
53300;BME280;39187;48.476;8.310;2023-03-17T07:16:29;90807.63;;;13.88;32.79
53300;BME280;39187;48.476;8.310;2023-03-17T07:18:57;90806.00;;;14.09;32.99
53300;BME280;39187;48.476;8.310;2023-03-17T07:21:22;90808.41;;;14.34;33.15
53300;BME280;39187;48.476;8.310;2023-03-17T07:23:48;90810.81;;;14.41;33.36
53300;BME280;39187;48.476;8.310;2023-03-17T07:26:13;90820.41;;;14.02;33.48
53300;BME280;39187;48.476;8.310;2023-03-17T07:28:39;90815.09;;;13.53;33.01
53300;BME280;39187;48.476;8.310;2023-03-17T07:31:05;90824.22;;;13.83;33.46
53300;BME280;39187;48.476;8.310;2023-03-17T07:33:33;90824.53;;;13.85;33.17
53300;BME280;39187;48.476;8.310;2023-03-17T07:35:58;90820.38;;;13.84;32.85
53300;BME280;39187;48.476;8.310;2023-03-17T07:38:24;90822.13;;;14.45;32.71
53300;BME280;39187;48.476;8.310;2023-03-17T07:40:50;90819.72;;;14.74;32.31
53300;BME280;39187;48.476;8.310;2023-03-17T07:43:17;90813.63;;;14.74;32.59
53300;BME280;39187;48.476;8.310;2023-03-17T07:45:44;90823.66;;;13.88;33.03
53300;BME280;39187;48.476;8.310;2023-03-17T07:48:11;90807.97;;;14.26;33.08
53300;BME280;39187;48.476;8.310;2023-03-17T07:50:37;90810.13;;;13.82;33.16
53300;BME280;39187;48.476;8.310;2023-03-17T07:53:03;90810.28;;;13.97;33.24
53300;BME280;39187;48.476;8.310;2023-03-17T07:55:30;90809.50;;;13.69;33.09
53300;BME280;39187;48.476;8.310;2023-03-17T07:57:56;90816.69;;;14.09;33.17
53300;BME280;39187;48.476;8.310;2023-03-17T08:00:22;90814.00;;;13.81;33.23
53300;BME280;39187;48.476;8.310;2023-03-17T08:02:48;90808.97;;;13.92;33.12
53300;BME280;39187;48.476;8.310;2023-03-17T08:05:15;90813.75;;;14.34;32.89
53300;BME280;39187;48.476;8.310;2023-03-17T08:07:41;90814.97;;;14.69;32.64
53300;BME280;39187;48.476;8.310;2023-03-17T08:10:08;90812.63;;;15.32;32.58
53300;BME280;39187;48.476;8.310;2023-03-17T08:12:34;90815.75;;;16.05;32.21
53300;BME280;39187;48.476;8.310;2023-03-17T08:15:00;90802.19;;;16.47;31.06
53300;BME280;39187;48.476;8.310;2023-03-17T08:17:26;90800.00;;;15.98;31.45
53300;BME280;39187;48.476;8.310;2023-03-17T08:19:55;90791.16;;;16.69;30.88
53300;BME280;39187;48.476;8.310;2023-03-17T08:22:21;90792.03;;;17.19;29.98
53300;BME280;39187;48.476;8.310;2023-03-17T08:24:47;90798.69;;;17.38;29.90
53300;BME280;39187;48.476;8.310;2023-03-17T08:27:14;90790.13;;;17.54;29.67
53300;BME280;39187;48.476;8.310;2023-03-17T08:29:39;90793.97;;;17.04;29.66
53300;BME280;39187;48.476;8.310;2023-03-17T08:32:05;90792.03;;;17.98;29.15
53300;BME280;39187;48.476;8.310;2023-03-17T08:34:31;90793.34;;;17.88;29.16
53300;BME280;39187;48.476;8.310;2023-03-17T08:36:57;90795.69;;;18.76;28.53
53300;BME280;39187;48.476;8.310;2023-03-17T08:39:23;90793.13;;;18.87;27.98
53300;BME280;39187;48.476;8.310;2023-03-17T08:41:49;90803.03;;;18.35;27.94
53300;BME280;39187;48.476;8.310;2023-03-17T08:44:15;90794.28;;;18.60;27.75
53300;BME280;39187;48.476;8.310;2023-03-17T08:46:41;90793.41;;;18.49;27.89
53300;BME280;39187;48.476;8.310;2023-03-17T08:49:07;90793.97;;;17.62;27.57
53300;BME280;39187;48.476;8.310;2023-03-17T08:51:35;90800.78;;;18.13;28.28
53300;BME280;39187;48.476;8.310;2023-03-17T08:54:03;90796.91;;;18.55;27.72
53300;BME280;39187;48.476;8.310;2023-03-17T08:56:29;90804.22;;;18.69;27.62
53300;BME280;39187;48.476;8.310;2023-03-17T08:58:55;90804.03;;;18.78;27.26
53300;BME280;39187;48.476;8.310;2023-03-17T09:01:21;90796.78;;;19.10;27.28
53300;BME280;39187;48.476;8.310;2023-03-17T09:03:50;90794.16;;;19.21;27.09
53300;BME280;39187;48.476;8.310;2023-03-17T09:06:17;90789.13;;;19.60;26.57
53300;BME280;39187;48.476;8.310;2023-03-17T09:08:43;90779.66;;;20.13;25.47
53300;BME280;39187;48.476;8.310;2023-03-17T09:11:16;90778.75;;;20.27;25.29
53300;BME280;39187;48.476;8.310;2023-03-17T09:13:43;90787.69;;;20.38;25.51
53300;BME280;39187;48.476;8.310;2023-03-17T09:16:09;90784.81;;;20.59;24.93
53300;BME280;39187;48.476;8.310;2023-03-17T09:18:34;90797.44;;;18.79;25.94
53300;BME280;39187;48.476;8.310;2023-03-17T09:21:00;90796.34;;;19.17;26.38
53300;BME280;39187;48.476;8.310;2023-03-17T09:23:27;90789.94;;;19.72;26.00
53300;BME280;39187;48.476;8.310;2023-03-17T09:25:53;90781.88;;;20.14;25.26
53300;BME280;39187;48.476;8.310;2023-03-17T09:28:19;90779.47;;;20.22;25.42
53300;BME280;39187;48.476;8.310;2023-03-17T09:30:44;90777.34;;;19.32;26.22
53300;BME280;39187;48.476;8.310;2023-03-17T09:33:11;90787.94;;;18.63;26.89
53300;BME280;39187;48.476;8.310;2023-03-17T09:35:37;90780.94;;;18.97;27.05
53300;BME280;39187;48.476;8.310;2023-03-17T09:38:04;90780.94;;;18.71;27.63
53300;BME280;39187;48.476;8.310;2023-03-17T09:40:33;90784.41;;;18.98;27.60
53300;BME280;39187;48.476;8.310;2023-03-17T09:43:27;90778.16;;;18.86;27.06
53300;BME280;39187;48.476;8.310;2023-03-17T09:46:29;90775.22;;;19.41;26.84
53300;BME280;39187;48.476;8.310;2023-03-17T09:49:34;90781.53;;;18.81;27.54
53300;BME280;39187;48.476;8.310;2023-03-17T09:52:02;90785.75;;;18.07;28.27
53300;BME280;39187;48.476;8.310;2023-03-17T09:54:33;90787.81;;;18.72;26.86
53300;BME280;39187;48.476;8.310;2023-03-17T09:57:15;90783.75;;;17.67;28.25
53300;BME280;39187;48.476;8.310;2023-03-17T09:59:44;90783.41;;;18.14;28.53
53300;BME280;39187;48.476;8.310;2023-03-17T10:04:49;90789.88;;;16.79;28.88
53300;BME280;39187;48.476;8.310;2023-03-17T10:07:19;90785.19;;;16.26;29.85
53300;BME280;39187;48.476;8.310;2023-03-17T10:10:00;90786.28;;;15.96;30.34
53300;BME280;39187;48.476;8.310;2023-03-17T10:13:03;90795.06;;;15.73;30.65
53300;BME280;39187;48.476;8.310;2023-03-17T10:15:38;90788.66;;;15.94;30.84
53300;BME280;39187;48.476;8.310;2023-03-17T10:18:14;90793.03;;;15.91;31.06
53300;BME280;39187;48.476;8.310;2023-03-17T10:21:03;90791.81;;;15.92;31.08
53300;BME280;39187;48.476;8.310;2023-03-17T10:23:36;90782.75;;;16.52;31.01
53300;BME280;39187;48.476;8.310;2023-03-17T10:26:12;90786.91;;;16.92;30.07
53300;BME280;39187;48.476;8.310;2023-03-17T10:28:41;90784.13;;;16.48;30.29
53300;BME280;39187;48.476;8.310;2023-03-17T10:31:19;90786.91;;;16.77;30.01
53300;BME280;39187;48.476;8.310;2023-03-17T10:33:53;90784.81;;;16.57;30.28
53300;BME280;39187;48.476;8.310;2023-03-17T10:36:37;90771.81;;;17.23;29.51
53300;BME280;39187;48.476;8.310;2023-03-17T10:39:04;90771.25;;;17.19;29.36
53300;BME280;39187;48.476;8.310;2023-03-17T10:41:35;90774.22;;;17.21;29.44
53300;BME280;39187;48.476;8.310;2023-03-17T10:44:08;90768.03;;;17.15;29.94
53300;BME280;39187;48.476;8.310;2023-03-17T10:46:37;90770.50;;;17.34;29.87
53300;BME280;39187;48.476;8.310;2023-03-17T10:49:08;90767.50;;;17.61;29.55
53300;BME280;39187;48.476;8.310;2023-03-17T10:51:36;90771.81;;;17.88;29.16
53300;BME280;39187;48.476;8.310;2023-03-17T10:54:10;90768.66;;;17.10;30.01
53300;BME280;39187;48.476;8.310;2023-03-17T10:56:42;90773.25;;;17.69;29.76
53300;BME280;39187;48.476;8.310;2023-03-17T10:59:41;90762.53;;;17.89;29.75
53300;BME280;39187;48.476;8.310;2023-03-17T11:02:25;90767.94;;;17.74;28.40
53300;BME280;39187;48.476;8.310;2023-03-17T11:05:17;90756.06;;;16.49;29.86
53300;BME280;39187;48.476;8.310;2023-03-17T11:07:44;90756.34;;;15.88;30.17
53300;BME280;39187;48.476;8.310;2023-03-17T11:10:24;90762.19;;;16.49;30.06
53300;BME280;39187;48.476;8.310;2023-03-17T11:12:57;90760.91;;;16.59;30.79
53300;BME280;39187;48.476;8.310;2023-03-17T11:16:16;90747.41;;;15.91;31.18
53300;BME280;39187;48.476;8.310;2023-03-17T11:18:21;90758.69;;;16.58;31.01
53300;BME280;39187;48.476;8.310;2023-03-17T11:34:42;90741.28;;;15.91;31.26
53300;BME280;39187;48.476;8.310;2023-03-17T11:40:19;90736.81;;;15.88;31.30
53300;BME280;39187;48.476;8.310;2023-03-17T11:43:16;90730.84;;;16.46;30.77
53300;BME280;39187;48.476;8.310;2023-03-17T11:45:51;90744.28;;;16.46;30.47
53300;BME280;39187;48.476;8.310;2023-03-17T11:56:47;90735.09;;;16.23;30.96
53300;BME280;39187;48.476;8.310;2023-03-17T11:59:48;90744.09;;;16.35;30.73
53300;BME280;39187;48.476;8.310;2023-03-17T12:05:16;90738.06;;;16.78;30.71
53300;BME280;39187;48.476;8.310;2023-03-17T12:08:05;90743.16;;;15.76;31.50
53300;BME280;39187;48.476;8.310;2023-03-17T12:10:41;90742.19;;;15.88;32.45
53300;BME280;39187;48.476;8.310;2023-03-17T12:13:13;90734.88;;;16.12;32.20
53300;BME280;39187;48.476;8.310;2023-03-17T12:15:59;90738.75;;;16.11;32.10
53300;BME280;39187;48.476;8.310;2023-03-17T12:18:45;90735.38;;;16.01;32.47
53300;BME280;39187;48.476;8.310;2023-03-17T12:21:56;90741.56;;;16.17;32.13
53300;BME280;39187;48.476;8.310;2023-03-17T12:24:33;90742.69;;;16.39;32.26
53300;BME280;39187;48.476;8.310;2023-03-17T12:29:57;90745.56;;;15.97;32.51
53300;BME280;39187;48.476;8.310;2023-03-17T12:35:37;90732.19;;;15.64;32.76
53300;BME280;39187;48.476;8.310;2023-03-17T12:40:51;90728.47;;;15.62;32.79
53300;BME280;39187;48.476;8.310;2023-03-17T12:43:47;90726.38;;;15.33;32.16
53300;BME280;39187;48.476;8.310;2023-03-17T12:46:49;90729.66;;;15.28;32.01
53300;BME280;39187;48.476;8.310;2023-03-17T12:51:58;90718.13;;;15.46;32.30
53300;BME280;39187;48.476;8.310;2023-03-17T12:54:36;90723.84;;;15.62;32.61
53300;BME280;39187;48.476;8.310;2023-03-17T12:57:13;90709.59;;;15.56;31.97
53300;BME280;39187;48.476;8.310;2023-03-17T12:59:43;90714.16;;;15.65;33.07
53300;BME280;39187;48.476;8.310;2023-03-17T13:02:36;90709.84;;;15.35;31.85
53300;BME280;39187;48.476;8.310;2023-03-17T13:05:08;90717.94;;;15.49;32.47
53300;BME280;39187;48.476;8.310;2023-03-17T13:07:47;90715.47;;;15.70;32.90
53300;BME280;39187;48.476;8.310;2023-03-17T13:10:41;90705.88;;;15.54;33.08
53300;BME280;39187;48.476;8.310;2023-03-17T13:13:11;90708.28;;;15.76;33.23
53300;BME280;39187;48.476;8.310;2023-03-17T13:23:20;90696.91;;;16.04;33.28
53300;BME280;39187;48.476;8.310;2023-03-17T13:25:47;90704.06;;;15.84;33.80
53300;BME280;39187;48.476;8.310;2023-03-17T13:33:52;90697.72;;;15.72;33.47
53300;BME280;39187;48.476;8.310;2023-03-17T13:49:48;90689.59;;;15.81;32.71
53300;BME280;39187;48.476;8.310;2023-03-17T13:52:25;90685.72;;;16.21;32.01
53300;BME280;39187;48.476;8.310;2023-03-17T14:00:24;90702.78;;;15.94;32.08
53300;BME280;39187;48.476;8.310;2023-03-17T14:03:11;90707.00;;;16.10;32.64
53300;BME280;39187;48.476;8.310;2023-03-17T14:05:39;90708.78;;;16.27;32.80
53300;BME280;39187;48.476;8.310;2023-03-17T14:10:38;90701.22;;;15.87;33.88
53300;BME280;39187;48.476;8.310;2023-03-17T14:13:16;90709.47;;;15.98;34.10
53300;BME280;39187;48.476;8.310;2023-03-17T14:16:15;90706.44;;;15.58;35.40
53300;BME280;39187;48.476;8.310;2023-03-17T14:18:47;90704.91;;;15.33;35.98
53300;BME280;39187;48.476;8.310;2023-03-17T14:21:30;90712.75;;;15.55;35.85
53300;BME280;39187;48.476;8.310;2023-03-17T14:23:58;90702.59;;;15.50;35.86
53300;BME280;39187;48.476;8.310;2023-03-17T14:26:27;90709.13;;;15.25;34.46
53300;BME280;39187;48.476;8.310;2023-03-17T14:28:54;90702.75;;;15.46;33.06
53300;BME280;39187;48.476;8.310;2023-03-17T14:31:25;90699.88;;;15.26;32.77
53300;BME280;39187;48.476;8.310;2023-03-17T14:33:57;90698.13;;;15.23;33.03
53300;BME280;39187;48.476;8.310;2023-03-17T14:36:23;90704.97;;;15.57;32.76